• Join FlightAware (Why Join?)
  • Login
  • US Flag 
06:18PM EDT


 

Airport Tracker/Info


-or-


 

Live Flight TrackerFlight Track Log ✈ N96FB ✈ 16-Oct-2013 ✈ KHEE - KLIT

Flight Track Log - Related Links

Times and Time Zones

All times are in EDT time to prevent confusion due to time zone crossing. See the N96FB flight status page for this flight to view local times or setup timezone preferences in your user account.

Time Position Orientation Groundspeed Altitude Reporting Facility
EDT Latitude Longitude Course Direction KTS MPH feet Rate Location/Type
06:59PM 34.6061 -90.7736 278° West 251 289 3,600  Level Memphis Center
07:00PM 34.6142 -90.8467 278° West 239 275 6,700 2,640 Climbing Memphis Center
07:01PM 34.6244 -90.9150 280° West 218 251 8,900 1,680 Climbing Memphis Center
07:02PM 34.6322 -90.9906 277° West 218 251 10,100 600 Climbing Memphis Center
07:03PM 34.6339 -91.0739 271° West 284 327 10,100 -120 Level Memphis Center
07:03PM 34.6361 -91.0792 297° West 251 289 10,000  Descending Memphis Center
07:03PM 34.6397 -91.1497 274° West 287 330 10,100 60 Climbing Memphis Center
07:04PM 34.6458 -91.1750 286° West 281 323 10,100  Level Memphis Center
07:04PM 34.6494 -91.2408 274° West 286 329 10,100  Level Memphis Center
07:05PM 34.6472 -91.2711 265° West 289 333 10,100  Level Memphis Center
07:05PM 34.6383 -91.3392 261° West 283 326 10,100 -120 Level Memphis Center
07:06PM 34.6361 -91.3642 264° West 289 333 10,000 -300 Descending Memphis Center
07:06PM 34.6272 -91.4272 260° West 281 323 9,800 -540 Descending Memphis Center
07:07PM 34.6269 -91.4575 269° West 289 333 9,500 -900 Descending Memphis Center
07:07PM 34.6181 -91.5256 261° West 278 320 8,900 -840 Descending Memphis Center
07:08PM 34.6181 -91.5383 270° West 289 333 8,700 -1,140 Descending Memphis Center
07:08PM 34.6047 -91.6214 259° West 274 315 7,800 -1,140 Descending Memphis Center
07:09PM 34.6044 -91.6314 268° West 284 327 7,600 -1,200 Descending Memphis Center
07:09PM 34.5975 -91.7069 264° West 262 302 6,600 -1,200 Descending Memphis Center
07:10PM 34.5972 -91.7322 269° West 269 310 6,400 -1,140 Descending Memphis Center
07:10PM 34.5858 -91.8000 258° West 259 298 5,500 -1,140 Descending Memphis Center
07:11PM 34.5900 -91.8178 286° West 276 318 5,300 -900 Descending Memphis Center
07:11PM 34.5956 -91.8758 277° West 245 282 4,600 -900 Descending Memphis Center
07:12PM 34.6014 -91.8989 287° West 263 303 4,400 -900 Descending Memphis Center
07:13PM 34.6089 -91.9797 276° West 253 291 3,500 -1,020 Descending Memphis Center
07:13PM 34.6144 -92.0353 277° West 238 274 2,700 -900 Descending Memphis Center
07:14PM 34.6181 -92.0606 280° West 253 291 2,600 -420 Descending Memphis Center
07:14PM 34.6300 -92.1189 284° West 235 270 2,300 -420 Descending Memphis Center
07:15PM 34.6400 -92.1317 314° West 243 280 2,200 -240 Descending Memphis Center
07:15PM 34.6539 -92.1875 287° West 234 269 2,100 -240 Descending Memphis Center
07:16PM 34.6619 -92.2078 296° West 237 273 2,000 -720 Descending Memphis Center
07:16PM 34.6906 -92.2414 316° Northwest 169 194 1,400 -120 Descending Memphis Center
07:17PM 34.6819 -92.2714 251° West 232 267 1,900 2,460 Climbing Memphis Center